Bonduel, Wisconsin
Current Conditions -  °F | °C
As of 2:35 AM on Friday 31 Oct 2014 (Local Time) from KEZS Reporting Station
Overcast Overcast  
Wind Chill: 31°   Ceiling: 3100
Heat Index: 39°   Visibility: 10mi
Dew Point: 31°   Wind: 14mph
Humidity: 75%   Direction: 350°N
Pressure: 30.07"   Gusts: 21mph
Location:  44.74°N, 88.44°W
Report Text: KEZS 310735Z AUTO 35012G18KT 10SM SCT024 OVC031 04/00 A3007 RMK AO2 T00371004
Loading
Personal Weather Stations






























Interactive Weather Map
Tropical Storm Tracking
New forecast layout! Learn more

10-Day Weather Forecast

Advertisements
Track Severe Weather on mobile